Time,TemperatureF,DewpointF,PressureIn,WindDirection,WindDirectionDegrees,WindSpeedMPH,WindSpeedGustMPH,Humidity,HourlyPrecipIn,Conditions,Clouds,dailyrainin,SoftwareType,DateUTC
2013-01-08 00:02:00,14.0,14.0,-100.00,SSE,165,1.0,2.0,99,-99.99,,,-99.99,,2013-01-08 06:02:00,
2013-01-08 00:33:00,14.0,14.0,-100.00,SSE,165,1.0,2.0,99,-99.99,,,-99.99,,2013-01-08 06:33:00,
2013-01-08 00:43:00,14.0,14.0,-100.00,SSE,165,1.0,2.0,99,-99.99,,,-99.99,,2013-01-08 06:43:00,
2013-01-08 00:53:00,14.0,14.0,-100.00,SSE,165,1.0,2.0,99,-99.99,,,-99.99,,2013-01-08 06:53:00,
2013-01-08 01:02:00,12.0,12.0,-100.00,SSW,205,0.0,1.0,99,-99.99,,,-99.99,,2013-01-08 07:02:00,
2013-01-08 01:32:00,12.0,12.0,-100.00,SSW,205,0.0,1.0,99,-99.99,,,-99.99,,2013-01-08 07:32:00,
2013-01-08 01:42:00,12.0,12.0,-100.00,SSW,205,0.0,1.0,99,-99.99,,,-99.99,,2013-01-08 07:42:00,
2013-01-08 01:52:00,12.0,12.0,-100.00,SSW,205,0.0,1.0,99,-99.99,,,-99.99,,2013-01-08 07:52:00,
2013-01-08 02:02:00,11.0,11.0,-100.00,SSE,160,1.0,1.0,99,-99.99,,,-99.99,,2013-01-08 08:02:00,
2013-01-08 02:32:00,11.0,11.0,-100.00,SSE,160,1.0,1.0,99,-99.99,,,-99.99,,2013-01-08 08:32:00,
2013-01-08 02:42:00,11.0,11.0,-100.00,SSE,160,1.0,1.0,99,-99.99,,,-99.99,,2013-01-08 08:42:00,
2013-01-08 02:53:00,11.0,11.0,-100.00,SSE,160,1.0,1.0,99,-99.99,,,-99.99,,2013-01-08 08:53:00,
2013-01-08 03:02:00,13.0,13.0,-100.00,SSE,150,1.0,2.0,99,-99.99,,,-99.99,,2013-01-08 09:02:00,
2013-01-08 03:33:00,13.0,13.0,-100.00,SSE,150,1.0,2.0,99,-99.99,,,-99.99,,2013-01-08 09:33:00,
2013-01-08 03:42:00,13.0,13.0,-100.00,SSE,150,1.0,2.0,99,-99.99,,,-99.99,,2013-01-08 09:42:00,
2013-01-08 03:52:00,13.0,13.0,-100.00,SSE,150,1.0,2.0,99,-99.99,,,-99.99,,2013-01-08 09:52:00,
2013-01-08 04:02:00,14.0,14.0,-100.00,SE,130,0.0,1.0,99,-99.99,,,-99.99,,2013-01-08 10:02:00,
2013-01-08 04:33:00,14.0,14.0,-100.00,SE,130,0.0,1.0,99,-99.99,,,-99.99,,2013-01-08 10:33:00,
2013-01-08 04:42:00,14.0,14.0,-100.00,SE,130,0.0,1.0,99,-99.99,,,-99.99,,2013-01-08 10:42:00,
2013-01-08 04:52:00,14.0,14.0,-100.00,SE,130,0.0,1.0,99,-99.99,,,-99.99,,2013-01-08 10:52:00,
2013-01-08 05:02:00,16.0,16.0,-100.00,SE,140,4.0,4.0,99,-99.99,,,-99.99,,2013-01-08 11:02:00,
2013-01-08 05:33:00,16.0,16.0,-100.00,SE,140,4.0,4.0,99,-99.99,,,-99.99,,2013-01-08 11:33:00,
2013-01-08 05:42:00,16.0,16.0,-100.00,SE,140,4.0,4.0,99,-99.99,,,-99.99,,2013-01-08 11:42:00,
2013-01-08 05:53:00,16.0,16.0,-100.00,SE,140,4.0,4.0,99,-99.99,,,-99.99,,2013-01-08 11:53:00,
2013-01-08 06:02:00,19.0,19.0,-100.00,WNW,300,3.0,3.0,99,-99.99,,,-99.99,,2013-01-08 12:02:00,
2013-01-08 06:33:00,19.0,19.0,-100.00,WNW,300,3.0,3.0,99,-99.99,,,-99.99,,2013-01-08 12:33:00,
2013-01-08 06:43:00,19.0,19.0,-100.00,WNW,300,3.0,3.0,99,-99.99,,,-99.99,,2013-01-08 12:43:00,
2013-01-08 06:53:00,19.0,19.0,-100.00,WNW,300,3.0,3.0,99,-99.99,,,-99.99,,2013-01-08 12:53:00,
2013-01-08 07:02:00,23.0,23.0,-100.00,ESE,105,9.0,10.0,99,-99.99,,,-99.99,,2013-01-08 13:02:00,
2013-01-08 07:33:00,23.0,23.0,-100.00,ESE,105,9.0,10.0,99,-99.99,,,-99.99,,2013-01-08 13:33:00,
2013-01-08 07:43:00,23.0,23.0,-100.00,ESE,105,9.0,10.0,99,-99.99,,,-99.99,,2013-01-08 13:43:00,
2013-01-08 07:53:00,23.0,23.0,-100.00,ESE,105,9.0,10.0,99,-99.99,,,-99.99,,2013-01-08 13:53:00,
2013-01-08 08:02:00,26.0,25.0,-100.00,SE,145,7.0,9.0,97,-99.99,,,-99.99,,2013-01-08 14:02:00,
2013-01-08 08:33:00,26.0,25.0,-100.00,SE,145,7.0,9.0,97,-99.99,,,-99.99,,2013-01-08 14:33:00,
2013-01-08 08:43:00,26.0,25.0,-100.00,SE,145,7.0,9.0,97,-99.99,,,-99.99,,2013-01-08 14:43:00,
2013-01-08 08:53:00,26.0,25.0,-100.00,SE,145,7.0,9.0,97,-99.99,,,-99.99,,2013-01-08 14:53:00,
2013-01-08 09:02:00,27.0,27.0,-100.00,South,170,3.0,5.0,98,-99.99,,,-99.99,,2013-01-08 15:02:00,
2013-01-08 09:33:00,27.0,27.0,-100.00,South,170,3.0,5.0,98,-99.99,,,-99.99,,2013-01-08 15:33:00,
2013-01-08 09:43:00,27.0,27.0,-100.00,South,170,3.0,5.0,98,-99.99,,,-99.99,,2013-01-08 15:43:00,
2013-01-08 09:53:00,27.0,27.0,-100.00,South,170,3.0,5.0,98,-99.99,,,-99.99,,2013-01-08 15:53:00,
2013-01-08 10:02:00,29.0,29.0,-100.00,South,175,3.0,4.0,99,-99.99,,,-99.99,,2013-01-08 16:02:00,
2013-01-08 10:34:00,29.0,29.0,-100.00,South,175,3.0,4.0,99,-99.99,,,-99.99,,2013-01-08 16:34:00,
2013-01-08 10:43:00,29.0,29.0,-100.00,South,175,3.0,4.0,99,-99.99,,,-99.99,,2013-01-08 16:43:00,
2013-01-08 10:53:00,29.0,29.0,-100.00,South,175,3.0,4.0,99,-99.99,,,-99.99,,2013-01-08 16:53:00,
2013-01-08 11:02:00,38.0,34.0,-100.00,ESE,115,1.0,2.0,83,-99.99,,,-99.99,,2013-01-08 17:02:00,
2013-01-08 11:34:00,38.0,34.0,-100.00,ESE,115,1.0,2.0,83,-99.99,,,-99.99,,2013-01-08 17:34:00,
2013-01-08 11:43:00,38.0,34.0,-100.00,ESE,115,1.0,2.0,83,-99.99,,,-99.99,,2013-01-08 17:43:00,
2013-01-08 11:54:00,38.0,34.0,-100.00,ESE,115,1.0,2.0,83,-99.99,,,-99.99,,2013-01-08 17:54:00,
2013-01-08 12:02:00,39.0,31.0,-100.00,WNW,290,14.0,16.0,73,-99.99,,,-99.99,,2013-01-08 18:02:00,
2013-01-08 12:33:00,39.0,31.0,-100.00,WNW,290,14.0,16.0,73,-99.99,,,-99.99,,2013-01-08 18:33:00,
2013-01-08 12:43:00,39.0,31.0,-100.00,WNW,290,14.0,16.0,73,-99.99,,,-99.99,,2013-01-08 18:43:00,
2013-01-08 12:53:00,39.0,31.0,-100.00,WNW,290,14.0,16.0,73,-99.99,,,-99.99,,2013-01-08 18:53:00,
2013-01-08 13:02:00,40.0,30.0,-100.00,WNW,295,12.0,14.0,70,-99.99,,,-99.99,,2013-01-08 19:02:00,
2013-01-08 13:33:00,40.0,30.0,-100.00,WNW,295,12.0,14.0,70,-99.99,,,-99.99,,2013-01-08 19:33:00,
2013-01-08 13:43:00,40.0,30.0,-100.00,WNW,295,12.0,14.0,70,-99.99,,,-99.99,,2013-01-08 19:43:00,
2013-01-08 13:53:00,40.0,30.0,-100.00,WNW,295,12.0,14.0,70,-99.99,,,-99.99,,2013-01-08 19:53:00,
2013-01-08 14:02:00,40.0,30.0,-100.00,West,280,9.0,12.0,67,-99.99,,,-99.99,,2013-01-08 20:02:00,
2013-01-08 14:33:00,40.0,30.0,-100.00,West,280,9.0,12.0,67,-99.99,,,-99.99,,2013-01-08 20:33:00,
2013-01-08 14:43:00,40.0,30.0,-100.00,West,280,9.0,12.0,67,-99.99,,,-99.99,,2013-01-08 20:43:00,
2013-01-08 14:53:00,40.0,30.0,-100.00,West,280,9.0,12.0,67,-99.99,,,-99.99,,2013-01-08 20:53:00,
2013-01-08 15:02:00,40.0,30.0,-100.00,WNW,290,11.0,14.0,68,-99.99,,,-99.99,,2013-01-08 21:02:00,
2013-01-08 15:33:00,40.0,30.0,-100.00,WNW,290,11.0,14.0,68,-99.99,,,-99.99,,2013-01-08 21:33:00,
2013-01-08 15:43:00,40.0,30.0,-100.00,WNW,290,11.0,14.0,68,-99.99,,,-99.99,,2013-01-08 21:43:00,
2013-01-08 15:53:00,40.0,30.0,-100.00,WNW,290,11.0,14.0,68,-99.99,,,-99.99,,2013-01-08 21:53:00,
2013-01-08 17:02:00,36.0,29.0,-100.00,WNW,295,14.0,17.0,74,-99.99,,,-99.99,,2013-01-08 23:02:00,
2013-01-08 17:33:00,36.0,29.0,-100.00,WNW,295,14.0,17.0,74,-99.99,,,-99.99,,2013-01-08 23:33:00,
2013-01-08 17:43:00,36.0,29.0,-100.00,WNW,295,14.0,17.0,74,-99.99,,,-99.99,,2013-01-08 23:43:00,
2013-01-08 17:53:00,36.0,29.0,-100.00,WNW,295,14.0,17.0,74,-99.99,,,-99.99,,2013-01-08 23:53:00,
2013-01-08 18:02:00,37.0,27.0,-100.00,WNW,290,20.0,24.0,67,-99.99,,,-99.99,,2013-01-09 00:02:00,
2013-01-08 18:33:00,37.0,27.0,-100.00,WNW,290,20.0,24.0,67,-99.99,,,-99.99,,2013-01-09 00:33:00,
2013-01-08 18:43:00,37.0,27.0,-100.00,WNW,290,20.0,24.0,67,-99.99,,,-99.99,,2013-01-09 00:43:00,
2013-01-08 18:53:00,37.0,27.0,-100.00,WNW,290,20.0,24.0,67,-99.99,,,-99.99,,2013-01-09 00:53:00,
2013-01-08 19:02:00,35.0,29.0,-100.00,West,265,12.0,14.0,78,-99.99,,,-99.99,,2013-01-09 01:02:00,
2013-01-08 19:33:00,35.0,29.0,-100.00,West,265,12.0,14.0,78,-99.99,,,-99.99,,2013-01-09 01:33:00,
2013-01-08 19:42:00,35.0,29.0,-100.00,West,265,12.0,14.0,78,-99.99,,,-99.99,,2013-01-09 01:42:00,
2013-01-08 19:52:00,35.0,29.0,-100.00,West,265,12.0,14.0,78,-99.99,,,-99.99,,2013-01-09 01:52:00,
2013-01-08 20:02:00,34.0,29.0,-100.00,West,275,18.0,21.0,83,-99.99,,,-99.99,,2013-01-09 02:02:00,
2013-01-08 20:33:00,34.0,29.0,-100.00,West,275,18.0,21.0,83,-99.99,,,-99.99,,2013-01-09 02:33:00,
2013-01-08 20:43:00,34.0,29.0,-100.00,West,275,18.0,21.0,83,-99.99,,,-99.99,,2013-01-09 02:43:00,
2013-01-08 20:53:00,34.0,29.0,-100.00,West,275,18.0,21.0,83,-99.99,,,-99.99,,2013-01-09 02:53:00,
2013-01-08 21:02:00,33.0,29.0,-100.00,WNW,290,17.0,22.0,83,-99.99,,,-99.99,,2013-01-09 03:02:00,
2013-01-08 21:33:00,33.0,29.0,-100.00,WNW,290,17.0,22.0,83,-99.99,,,-99.99,,2013-01-09 03:33:00,
2013-01-08 21:43:00,33.0,29.0,-100.00,WNW,290,17.0,22.0,83,-99.99,,,-99.99,,2013-01-09 03:43:00,
2013-01-08 21:53:00,33.0,29.0,-100.00,WNW,290,17.0,22.0,83,-99.99,,,-99.99,,2013-01-09 03:53:00,
2013-01-08 22:02:00,33.0,27.0,-100.00,WNW,285,18.0,20.0,79,-99.99,,,-99.99,,2013-01-09 04:02:00,
2013-01-08 22:33:00,33.0,27.0,-100.00,WNW,285,18.0,20.0,79,-99.99,,,-99.99,,2013-01-09 04:33:00,
2013-01-08 22:43:00,33.0,27.0,-100.00,WNW,285,18.0,20.0,79,-99.99,,,-99.99,,2013-01-09 04:43:00,
2013-01-08 22:52:00,33.0,27.0,-100.00,WNW,285,18.0,20.0,79,-99.99,,,-99.99,,2013-01-09 04:52:00,
2013-01-08 23:02:00,31.0,26.0,-100.00,WNW,290,18.0,21.0,81,-99.99,,,-99.99,,2013-01-09 05:02:00,
2013-01-08 23:33:00,31.0,26.0,-100.00,WNW,290,18.0,21.0,81,-99.99,,,-99.99,,2013-01-09 05:33:00,
2013-01-08 23:43:00,31.0,26.0,-100.00,WNW,290,18.0,21.0,81,-99.99,,,-99.99,,2013-01-09 05:43:00,
2013-01-08 23:53:00,31.0,26.0,-100.00,WNW,290,18.0,21.0,81,-99.99,,,-99.99,,2013-01-09 05:53:00,